Time;durP1;ratioP1;P1;durP2;ratioP2;P2;SDS_P1;SDS_P2;PMS_P1;PMS_P2;Temp;Humidity;BMP_temperature;BMP_pressure;BME280_temperature;BME280_humidity;BME280_pressure;Samples;Min_cycle;Max_cycle;Signal;HPM_P1;HPM_P2
2022/04/24 00:00:44;;;;;;;4.80;4.38;;;;;;;-148.33;100.00;56587.81;5029669;28;20033;-59
2022/04/24 00:03:09;;;;;;;4.78;4.38;;;;;;;-148.33;100.00;56587.81;5029917;28;20029;-60
2022/04/24 00:05:35;;;;;;;5.57;5.07;;;;;;;-148.33;100.00;56587.81;5030147;28;20477;-59
2022/04/24 00:08:00;;;;;;;4.50;4.10;;;;;;;-148.33;100.00;56587.81;5029800;28;20026;-60
2022/04/24 00:10:25;;;;;;;5.28;4.78;;;;;;;-148.33;100.00;56587.81;5037332;28;20622;-60
2022/04/24 00:12:51;;;;;;;4.85;4.43;;;;;;;-148.33;100.00;56587.81;5048802;28;20501;-60
2022/04/24 00:15:16;;;;;;;4.78;4.38;;;;;;;-148.33;100.00;56587.81;5049140;28;20060;-59
2022/04/24 00:17:42;;;;;;;4.55;4.15;;;;;;;-148.33;100.00;56587.81;5048618;28;20025;-60
2022/04/24 00:20:08;;;;;;;4.75;4.25;;;;;;;-148.33;100.00;56587.81;5048914;28;20028;-60
2022/04/24 00:22:33;;;;;;;4.35;3.95;;;;;;;-148.33;100.00;56587.81;5048701;28;20040;-60
2022/04/24 00:24:58;;;;;;;4.10;3.80;;;;;;;-148.33;100.00;56587.81;5048549;28;20033;-59
2022/04/24 00:27:23;;;;;;;4.30;4.00;;;;;;;-148.33;100.00;56587.81;5048481;28;20039;-59
2022/04/24 00:29:49;;;;;;;4.32;3.97;;;;;;;-148.33;100.00;56587.81;5048903;28;20021;-60
2022/04/24 00:32:14;;;;;;;4.40;4.10;;;;;;;-148.33;100.00;56587.81;5046992;28;20032;-59
2022/04/24 00:34:41;;;;;;;4.57;4.28;;;;;;;-148.33;100.00;56587.81;5047942;28;20057;-60
2022/04/24 00:37:06;;;;;;;5.32;4.82;;;;;;;-148.33;100.00;56587.81;5048628;28;20083;-58
2022/04/24 00:39:32;;;;;;;4.70;4.30;;;;;;;-148.33;100.00;56587.81;5048458;28;20302;-60
2022/04/24 00:41:57;;;;;;;5.00;4.60;;;;;;;-148.33;100.00;56587.81;5048502;28;20025;-58
2022/04/24 00:44:23;;;;;;;4.80;4.50;;;;;;;-148.33;100.00;56587.81;5047920;28;20028;-60
2022/04/24 00:46:54;;;;;;;4.70;4.30;;;;;;;-148.33;100.00;56587.81;5048041;28;20107;-57
2022/04/24 00:49:20;;;;;;;4.97;4.47;;;;;;;-148.33;100.00;56587.81;5032091;28;20470;-60
2022/04/24 00:51:46;;;;;;;4.57;4.28;;;;;;;-148.33;100.00;56587.81;5029543;28;20568;-58
2022/04/24 00:54:12;;;;;;;5.20;4.80;;;;;;;-148.33;100.00;56587.81;5028436;28;20040;-58
2022/04/24 00:56:39;;;;;;;5.38;4.97;;;;;;;-148.33;100.00;56587.81;5028978;28;20598;-58
2022/04/24 00:59:06;;;;;;;5.18;4.75;;;;;;;-148.33;100.00;56587.81;5029248;28;20386;-57
2022/04/24 01:01:33;;;;;;;5.63;5.20;;;;;;;-148.33;100.00;56587.81;5029156;28;20474;-59
2022/04/24 01:04:00;;;;;;;5.47;4.97;;;;;;;-148.33;100.00;56587.81;5028795;28;20390;-58
2022/04/24 01:06:27;;;;;;;4.55;4.25;;;;;;;-148.33;100.00;56587.81;5029352;28;20211;-58
2022/04/24 01:08:52;;;;;;;5.68;5.28;;;;;;;-148.33;100.00;56587.81;5028306;28;20488;-56
2022/04/24 01:11:17;;;;;;;5.65;5.20;;;;;;;-148.33;100.00;56587.81;5029420;28;20021;-58
2022/04/24 01:13:43;;;;;;;6.68;5.07;;;;;;;-148.33;100.00;56587.81;5030459;28;20040;-58
2022/04/24 01:16:08;;;;;;;6.05;5.32;;;;;;;-148.33;100.00;56587.81;5044581;28;20017;-56
2022/04/24 01:18:33;;;;;;;6.50;5.97;;;;;;;-148.33;100.00;56587.81;5028091;28;20034;-58
2022/04/24 01:21:09;;;;;;;5.85;5.38;;;;;;;-148.33;100.00;56587.81;5028707;28;20029;-58
2022/04/24 01:23:36;;;;;;;6.75;5.97;;;;;;;-148.33;100.00;56587.81;5028722;28;20045;-58
2022/04/24 01:26:01;;;;;;;7.20;5.40;;;;;;;-148.33;100.00;56587.81;5028465;28;20026;-59
2022/04/24 01:28:26;;;;;;;5.95;5.55;;;;;;;-148.33;100.00;56587.81;5027754;28;20036;-59
2022/04/24 01:30:51;;;;;;;6.03;5.53;;;;;;;-148.33;100.00;56587.81;5028091;28;20063;-58
2022/04/24 01:33:17;;;;;;;6.80;6.22;;;;;;;-148.33;100.00;56587.81;5028267;28;20405;-57
2022/04/24 01:35:42;;;;;;;6.28;5.78;;;;;;;-148.33;100.00;56587.81;5040380;28;20264;-59
2022/04/24 01:38:07;;;;;;;5.97;5.47;;;;;;;-148.33;100.00;56587.81;5028050;28;20029;-57
2022/04/24 01:40:32;;;;;;;6.10;5.60;;;;;;;-148.33;100.00;56587.81;5027873;28;20021;-58
2022/04/24 01:42:58;;;;;;;5.72;5.25;;;;;;;-148.33;100.00;56587.81;5028217;28;20469;-59
2022/04/24 01:45:23;;;;;;;6.70;6.20;;;;;;;-148.33;100.00;56587.81;5033881;28;20035;-59
2022/04/24 01:47:48;;;;;;;6.20;5.70;;;;;;;-148.33;100.00;56587.81;5047167;28;20473;-59
2022/04/24 01:50:14;;;;;;;5.82;5.43;;;;;;;-148.33;100.00;56587.81;5047104;28;20112;-59
2022/04/24 01:52:39;;;;;;;5.97;5.47;;;;;;;-148.33;100.00;56587.81;5046968;28;20059;-59
2022/04/24 01:55:04;;;;;;;5.97;5.47;;;;;;;-148.33;100.00;56587.81;5047183;28;20044;-58
2022/04/24 01:57:30;;;;;;;6.13;5.53;;;;;;;-148.33;100.00;56587.81;5046907;28;20179;-59
2022/04/24 01:59:55;;;;;;;5.93;5.43;;;;;;;-148.33;100.00;56587.81;5046521;28;20017;-58
2022/04/24 02:02:20;;;;;;;6.03;5.50;;;;;;;-148.33;100.00;56587.81;5047390;28;20025;-59
2022/04/24 02:04:45;;;;;;;5.53;5.03;;;;;;;-148.33;100.00;56587.81;5047125;28;20425;-59
2022/04/24 02:07:11;;;;;;;5.82;5.43;;;;;;;-148.33;100.00;56587.81;5047469;28;20022;-57
2022/04/24 02:09:36;;;;;;;6.05;5.45;;;;;;;-148.33;100.00;56587.81;5047134;28;20057;-59
2022/04/24 02:12:02;;;;;;;6.18;5.57;;;;;;;-148.33;100.00;56587.81;5047265;28;20103;-59
2022/04/24 02:14:27;;;;;;;6.72;6.18;;;;;;;-148.33;100.00;56587.81;5047235;28;20179;-59
2022/04/24 02:16:53;;;;;;;6.53;5.53;;;;;;;-148.33;100.00;56587.81;5047222;28;20489;-59
2022/04/24 02:19:18;;;;;;;5.43;5.03;;;;;;;-148.33;100.00;56587.81;5045887;28;20025;-59
2022/04/24 02:21:43;;;;;;;5.95;5.50;;;;;;;-148.33;100.00;56587.81;5027977;28;20040;-59
2022/04/24 02:24:09;;;;;;;6.50;5.90;;;;;;;-148.33;100.00;56587.81;5027837;28;20030;-58
2022/04/24 02:26:35;;;;;;;6.32;5.72;;;;;;;-148.33;100.00;56587.81;5028195;28;20036;-58
2022/04/24 02:29:00;;;;;;;5.80;5.40;;;;;;;-148.33;100.00;56587.81;5033323;28;20071;-58
2022/04/24 02:31:26;;;;;;;6.40;5.93;;;;;;;-148.33;100.00;56587.81;5032498;28;20203;-58
2022/04/24 02:33:51;;;;;;;6.18;5.68;;;;;;;-148.33;100.00;56587.81;5027768;28;20055;-58
2022/04/24 02:36:16;;;;;;;6.38;5.90;;;;;;;-148.33;100.00;56587.81;5027710;28;20022;-58
2022/04/24 02:38:41;;;;;;;6.10;5.60;;;;;;;-148.33;100.00;56587.81;5028005;28;20033;-58
2022/04/24 02:41:07;;;;;;;6.68;6.18;;;;;;;-148.33;100.00;56587.81;5030017;28;20029;-58
2022/04/24 02:43:32;;;;;;;6.60;6.10;;;;;;;-148.33;100.00;56587.81;5034511;28;20112;-57
2022/04/24 02:45:58;;;;;;;6.75;6.10;;;;;;;-148.33;100.00;56587.81;5050588;28;20029;-58
2022/04/24 02:48:27;;;;;;;6.90;6.20;;;;;;;-148.33;100.00;56587.81;5050105;28;20642;-57
2022/04/24 02:50:52;;;;;;;7.07;6.38;;;;;;;-148.33;100.00;56587.81;5050227;28;20044;-59
2022/04/24 02:53:18;;;;;;;6.30;5.80;;;;;;;-148.33;100.00;56587.81;5050185;28;20017;-59
2022/04/24 02:55:43;;;;;;;7.28;6.68;;;;;;;-148.33;100.00;56587.81;5050216;28;20148;-58
2022/04/24 02:58:08;;;;;;;7.45;6.60;;;;;;;-148.33;100.00;56587.81;5050500;28;20372;-58
2022/04/24 03:00:42;;;;;;;6.80;6.30;;;;;;;-148.33;100.00;56587.81;5050038;28;20033;-58
2022/04/24 03:03:08;;;;;;;7.93;7.32;;;;;;;-148.33;100.00;56587.81;5050510;28;20099;-59
2022/04/24 03:05:35;;;;;;;7.00;6.40;;;;;;;-148.33;100.00;56587.81;5049938;28;20032;-58
2022/04/24 03:08:00;;;;;;;9.20;7.13;;;;;;;-148.33;100.00;56587.81;5050256;28;20025;-58
2022/04/24 03:10:27;;;;;;;7.57;6.97;;;;;;;-148.33;100.00;56587.81;5049928;28;20309;-57
2022/04/24 03:12:52;;;;;;;7.13;6.63;;;;;;;-148.33;100.00;56587.81;5049644;28;20025;-58
2022/04/24 03:15:18;;;;;;;7.57;6.97;;;;;;;-148.33;100.00;56587.81;5049890;28;20032;-59
2022/04/24 03:17:44;;;;;;;7.28;6.68;;;;;;;-148.33;100.00;56587.81;5050077;28;20090;-58
2022/04/24 03:20:11;;;;;;;7.70;7.10;;;;;;;-148.33;100.00;56587.81;5049954;28;20043;-57
2022/04/24 03:22:37;;;;;;;8.18;7.32;;;;;;;-148.33;100.00;56587.81;5049665;28;20267;-57
2022/04/24 03:25:04;;;;;;;8.48;7.68;;;;;;;-148.33;100.00;56587.81;5048326;28;20032;-59
2022/04/24 03:27:30;;;;;;;7.50;6.80;;;;;;;-148.33;100.00;56587.81;5049519;28;20044;-57
2022/04/24 03:29:55;;;;;;;7.70;7.00;;;;;;;-148.33;100.00;56587.81;5049936;28;20033;-57
2022/04/24 03:32:20;;;;;;;8.00;7.20;;;;;;;-148.33;100.00;56587.81;5049367;28;20056;-58
2022/04/24 03:34:45;;;;;;;8.10;7.30;;;;;;;-148.33;100.00;56587.81;5049392;28;20132;-60
2022/04/24 03:37:11;;;;;;;7.63;6.95;;;;;;;-148.33;100.00;56587.81;5049816;28;20082;-59
2022/04/24 03:39:36;;;;;;;8.15;7.53;;;;;;;-148.33;100.00;56587.81;5049581;28;20032;-59
2022/04/24 03:42:03;;;;;;;8.45;7.75;;;;;;;-148.33;100.00;56587.81;5049672;28;20142;-59
2022/04/24 03:44:28;;;;;;;8.98;8.27;;;;;;;-148.33;100.00;56587.81;5049304;28;20112;-58
2022/04/24 03:46:54;;;;;;;8.32;7.47;;;;;;;-148.33;100.00;56587.81;5049234;28;20112;-57
2022/04/24 03:49:19;;;;;;;7.40;6.68;;;;;;;-148.33;100.00;56587.81;5049562;28;20460;-57
2022/04/24 03:51:44;;;;;;;8.27;7.57;;;;;;;-148.33;100.00;56587.81;5046841;28;20032;-58
2022/04/24 03:54:09;;;;;;;7.72;7.05;;;;;;;-148.33;100.00;56587.81;5049243;28;20025;-59
2022/04/24 03:56:35;;;;;;;8.60;7.70;;;;;;;-148.33;100.00;56587.81;5049499;28;20033;-58
2022/04/24 03:59:01;;;;;;;8.63;7.82;;;;;;;-148.33;100.00;56587.81;5049646;28;20052;-59
2022/04/24 04:01:26;;;;;;;8.27;7.57;;;;;;;-148.33;100.00;56587.81;5049927;28;20532;-58
2022/04/24 04:03:51;;;;;;;8.60;7.90;;;;;;;-148.33;100.00;56587.81;5049697;28;20079;-59
2022/04/24 04:06:17;;;;;;;8.52;7.75;;;;;;;-148.33;100.00;56587.81;5050050;28;20041;-59
2022/04/24 04:08:42;;;;;;;8.25;7.55;;;;;;;-148.33;100.00;56587.81;5049072;28;20487;-57
2022/04/24 04:11:07;;;;;;;8.23;7.38;;;;;;;-148.33;100.00;56587.81;5049004;28;20107;-60
2022/04/24 04:13:33;;;;;;;9.18;8.27;;;;;;;-148.33;100.00;56587.81;5049105;28;20038;-59
2022/04/24 04:15:59;;;;;;;8.30;7.60;;;;;;;-148.33;100.00;56587.81;5048376;28;20372;-59
2022/04/24 04:18:24;;;;;;;8.80;8.00;;;;;;;-148.33;100.00;56587.81;5047368;28;20473;-58
2022/04/24 04:20:49;;;;;;;8.30;7.43;;;;;;;-148.33;100.00;56587.81;5047226;28;20028;-59
2022/04/24 04:23:14;;;;;;;8.18;7.38;;;;;;;-148.33;100.00;56587.81;5047624;28;20040;-60
2022/04/24 04:25:40;;;;;;;7.82;7.13;;;;;;;-148.33;100.00;56587.81;5048031;28;20033;-57
2022/04/24 04:28:05;;;;;;;9.88;7.50;;;;;;;-148.33;100.00;56587.81;5048643;28;20048;-58
2022/04/24 04:30:31;;;;;;;7.93;7.32;;;;;;;-148.33;100.00;56587.81;5049111;28;20021;-57
2022/04/24 04:32:56;;;;;;;8.57;7.78;;;;;;;-148.33;100.00;56587.81;5048720;28;20137;-57
2022/04/24 04:35:23;;;;;;;10.32;8.30;;;;;;;-148.33;100.00;56587.81;5049026;28;20079;-59
2022/04/24 04:37:49;;;;;;;8.30;7.60;;;;;;;-148.33;100.00;56587.81;5049097;28;20103;-57
2022/04/24 04:40:14;;;;;;;8.15;7.43;;;;;;;-148.33;100.00;56587.81;5043553;28;20553;-58
2022/04/24 04:42:40;;;;;;;8.77;7.90;;;;;;;-148.33;100.00;56587.81;5029879;28;20029;-58
2022/04/24 04:45:06;;;;;;;7.50;6.90;;;;;;;-148.33;100.00;56587.81;5029786;28;20037;-58
2022/04/24 04:47:31;;;;;;;8.35;7.53;;;;;;;-148.33;100.00;56587.81;5029374;28;20028;-57
2022/04/24 04:49:57;;;;;;;8.35;7.60;;;;;;;-148.33;100.00;56587.81;5029819;28;20033;-58
2022/04/24 04:52:22;;;;;;;8.85;7.65;;;;;;;-148.33;100.00;56587.81;5029891;28;20025;-57
2022/04/24 04:54:48;;;;;;;7.93;7.22;;;;;;;-148.33;100.00;56587.81;5029674;28;20060;-57
2022/04/24 04:57:14;;;;;;;7.95;7.22;;;;;;;-148.33;100.00;56587.81;5029794;28;20401;-58
2022/04/24 04:59:40;;;;;;;8.20;7.40;;;;;;;-148.33;100.00;56587.81;5029918;28;20033;-57
2022/04/24 05:02:05;;;;;;;8.15;7.13;;;;;;;-148.33;100.00;56587.81;5029490;28;20045;-58
2022/04/24 05:04:30;;;;;;;8.02;7.22;;;;;;;-148.33;100.00;56587.81;5028383;28;20021;-59
2022/04/24 05:06:56;;;;;;;8.00;7.30;;;;;;;-148.33;100.00;56587.81;5029068;28;20036;-57
2022/04/24 05:09:21;;;;;;;7.75;7.15;;;;;;;-148.33;100.00;56587.81;5029192;28;20409;-59
2022/04/24 05:11:46;;;;;;;7.65;6.95;;;;;;;-148.33;100.00;56587.81;5029333;28;20432;-59
2022/04/24 05:14:13;;;;;;;8.38;7.68;;;;;;;-148.33;100.00;56587.81;5030451;28;20025;-58
2022/04/24 05:16:39;;;;;;;8.10;7.30;;;;;;;-148.33;100.00;56587.81;5047726;28;20131;-57
2022/04/24 05:19:06;;;;;;;8.43;7.63;;;;;;;-148.33;100.00;56587.81;5048275;28;20029;-58
2022/04/24 05:21:32;;;;;;;7.75;6.95;;;;;;;-148.33;100.00;56587.81;5048426;28;20218;-59
2022/04/24 05:23:57;;;;;;;8.13;7.47;;;;;;;-148.33;100.00;56587.81;5028459;28;20132;-58
2022/04/24 05:26:22;;;;;;;8.13;7.32;;;;;;;-148.33;100.00;56587.81;5028982;28;20498;-59
2022/04/24 05:28:48;;;;;;;8.05;7.38;;;;;;;-148.33;100.00;56587.81;5028758;28;20026;-57
2022/04/24 05:31:13;;;;;;;8.25;7.13;;;;;;;-148.33;100.00;56587.81;5029186;28;20022;-59
2022/04/24 05:33:38;;;;;;;7.88;6.95;;;;;;;-148.33;100.00;56587.81;5028133;28;20167;-58
2022/04/24 05:36:06;;;;;;;7.03;6.43;;;;;;;-148.33;100.00;56587.81;5034432;28;20637;-58
2022/04/24 05:38:32;;;;;;;7.55;6.80;;;;;;;-148.33;100.00;56587.81;5041585;28;20477;-58
2022/04/24 05:40:58;;;;;;;8.60;6.80;;;;;;;-148.33;100.00;56587.81;5037229;28;20176;-59
2022/04/24 05:43:23;;;;;;;7.20;6.60;;;;;;;-148.33;100.00;56587.81;5028340;28;20438;-59
2022/04/24 05:45:48;;;;;;;7.60;6.75;;;;;;;-148.33;100.00;56587.81;5028848;28;20025;-57
2022/04/24 05:48:15;;;;;;;8.27;6.78;;;;;;;-148.33;100.00;56587.81;5028284;28;20389;-59
2022/04/24 05:50:40;;;;;;;7.50;6.78;;;;;;;-148.33;100.00;56587.81;5028134;28;20076;-57
2022/04/24 05:53:06;;;;;;;7.18;6.47;;;;;;;-148.33;100.00;56587.81;5028787;28;20033;-58
2022/04/24 05:55:31;;;;;;;11.35;7.13;;;;;;;-148.33;100.00;56587.81;5028775;28;20014;-59
2022/04/24 05:57:56;;;;;;;8.35;6.50;;;;;;;-148.33;100.00;56587.81;5038141;28;20496;-58
2022/04/24 06:00:22;;;;;;;7.07;6.20;;;;;;;-148.33;100.00;56587.81;5037718;28;20105;-58
2022/04/24 06:02:48;;;;;;;6.65;6.07;;;;;;;-148.33;100.00;56587.81;5028469;28;20428;-58
2022/04/24 06:05:13;;;;;;;6.68;6.07;;;;;;;-148.33;100.00;56587.81;5029144;28;20246;-58
2022/04/24 06:07:41;;;;;;;6.68;6.07;;;;;;;-148.33;100.00;56587.81;5028668;28;20029;-59
2022/04/24 06:10:08;;;;;;;6.75;6.00;;;;;;;-148.33;100.00;56587.81;5028321;28;20021;-58
2022/04/24 06:13:03;;;;;;;6.68;6.05;;;;;;;-148.33;100.00;56587.81;5040432;28;20021;-58
2022/04/24 06:15:28;;;;;;;6.82;6.22;;;;;;;-148.33;100.00;56587.81;5031562;28;20385;-59
2022/04/24 06:17:57;;;;;;;8.23;6.53;;;;;;;-148.33;100.00;56587.81;5049346;28;20115;-58
2022/04/24 06:20:23;;;;;;;7.07;6.13;;;;;;;-148.33;100.00;56587.81;5033920;28;20060;-58
2022/04/24 06:22:53;;;;;;;6.68;5.97;;;;;;;-148.33;100.00;56587.81;5032462;28;20044;-59
2022/04/24 06:25:25;;;;;;;6.75;6.15;;;;;;;-148.33;100.00;56587.81;5031646;28;20039;-59
2022/04/24 06:27:51;;;;;;;6.72;6.10;;;;;;;-148.33;100.00;56587.81;5032270;28;20511;-57
2022/04/24 06:30:18;;;;;;;7.18;6.57;;;;;;;-148.33;100.00;56587.81;5031110;28;20025;-58
2022/04/24 06:32:44;;;;;;;7.28;6.57;;;;;;;-148.33;100.00;56587.81;5031871;28;20487;-60
2022/04/24 06:35:12;;;;;;;7.28;6.57;;;;;;;-148.33;100.00;56587.81;5031691;28;20021;-58
2022/04/24 06:37:38;;;;;;;5.97;5.45;;;;;;;-148.33;100.00;56587.81;5032200;28;20027;-59
2022/04/24 06:40:09;;;;;;;6.13;5.53;;;;;;;-148.33;100.00;56587.81;5032253;28;20033;-59
2022/04/24 06:42:35;;;;;;;6.38;5.53;;;;;;;-148.33;100.00;56587.81;5049705;28;20127;-60
2022/04/24 06:45:01;;;;;;;7.60;6.50;;;;;;;-148.33;100.00;56587.81;5036122;28;20064;-60
2022/04/24 06:47:27;;;;;;;6.57;5.38;;;;;;;-148.33;100.00;56587.81;5046974;28;20052;-59
2022/04/24 06:49:55;;;;;;;6.32;5.72;;;;;;;-148.33;100.00;56587.81;5044627;28;20042;-59
2022/04/24 06:52:21;;;;;;;6.18;5.55;;;;;;;-148.33;100.00;56587.81;5048996;28;20104;-60
2022/04/24 06:54:47;;;;;;;8.70;5.88;;;;;;;-148.33;100.00;56587.81;5048295;28;20104;-59
2022/04/24 06:57:13;;;;;;;6.38;5.78;;;;;;;-148.33;100.00;56587.81;5043690;28;20378;-60
2022/04/24 06:59:38;;;;;;;6.45;5.80;;;;;;;-148.33;100.00;56587.81;5044448;28;20033;-59
2022/04/24 07:02:03;;;;;;;6.60;6.00;;;;;;;-148.33;100.00;56587.81;5046542;28;20098;-58
2022/04/24 07:04:29;;;;;;;6.95;6.05;;;;;;;-148.33;100.00;56587.81;5046014;28;20071;-58
2022/04/24 07:06:54;;;;;;;6.78;6.07;;;;;;;-148.33;100.00;56587.81;5045226;28;20064;-59
2022/04/24 07:09:19;;;;;;;6.95;6.25;;;;;;;-148.33;100.00;56587.81;5049290;28;20416;-60
2022/04/24 07:11:45;;;;;;;7.03;6.43;;;;;;;-148.33;100.00;56587.81;5048860;28;20041;-60
2022/04/24 07:14:10;;;;;;;6.55;6.05;;;;;;;-148.33;100.00;56587.81;5037300;28;20384;-57
2022/04/24 07:16:35;;;;;;;6.90;6.28;;;;;;;-148.33;100.00;56587.81;5045442;28;20163;-58
2022/04/24 07:19:01;;;;;;;6.47;5.95;;;;;;;-148.33;100.00;56587.81;5048383;28;20027;-59
2022/04/24 07:21:27;;;;;;;6.63;6.10;;;;;;;-148.33;100.00;56587.81;5039364;28;20029;-59
2022/04/24 07:23:52;;;;;;;6.93;6.10;;;;;;;-148.33;100.00;56587.81;5036354;28;20035;-57
2022/04/24 07:26:17;;;;;;;7.82;6.18;;;;;;;-148.33;100.00;56587.81;5037388;28;20029;-56
2022/04/24 07:28:42;;;;;;;6.28;5.78;;;;;;;-148.33;100.00;56587.81;5031215;28;20132;-58
2022/04/24 07:31:08;;;;;;;6.85;6.15;;;;;;;-148.33;100.00;56587.81;5035724;28;20040;-59
2022/04/24 07:33:34;;;;;;;6.85;6.25;;;;;;;-148.33;100.00;56587.81;5030095;28;20053;-58
2022/04/24 07:35:59;;;;;;;8.65;6.45;;;;;;;-148.33;100.00;56587.81;5036035;28;20108;-58
2022/04/24 07:38:25;;;;;;;6.65;6.05;;;;;;;-148.33;100.00;56587.81;5036372;28;20136;-59
2022/04/24 07:40:50;;;;;;;6.70;6.05;;;;;;;-148.33;100.00;56587.81;5030789;28;20104;-58
2022/04/24 07:43:15;;;;;;;6.82;6.13;;;;;;;-148.33;100.00;56587.81;5037125;28;20108;-59
2022/04/24 07:45:43;;;;;;;6.60;5.90;;;;;;;-148.33;100.00;56587.81;5039049;28;20136;-60
2022/04/24 07:48:10;;;;;;;6.38;5.78;;;;;;;-148.33;100.00;56587.81;5042697;28;20020;-60
2022/04/24 07:50:48;;;;;;;6.47;5.97;;;;;;;-148.33;100.00;56587.81;5042003;28;20025;-60
2022/04/24 07:53:14;;;;;;;7.60;6.40;;;;;;;-148.33;100.00;56587.81;5045458;28;20554;-59
2022/04/24 07:55:41;;;;;;;7.05;6.32;;;;;;;-148.33;100.00;56587.81;5045256;28;20124;-60
2022/04/24 07:58:06;;;;;;;7.90;7.13;;;;;;;-148.33;100.00;56587.81;5044047;28;20104;-59
2022/04/24 08:00:33;;;;;;;7.70;6.15;;;;;;;-148.33;100.00;56587.81;5030041;28;20449;-59
2022/04/24 08:03:01;;;;;;;7.22;6.18;;;;;;;-148.33;100.00;56587.81;5029654;28;20029;-60
2022/04/24 08:05:28;;;;;;;6.90;6.20;;;;;;;-148.33;100.00;56587.81;5030001;28;20034;-60
2022/04/24 08:07:55;;;;;;;6.50;6.00;;;;;;;-148.33;100.00;56587.81;5044072;28;20861;-60
2022/04/24 08:10:22;;;;;;;6.95;6.35;;;;;;;-148.33;100.00;56587.81;5048075;28;20028;-60
2022/04/24 08:12:48;;;;;;;7.18;6.30;;;;;;;-148.33;100.00;56587.81;5048821;28;20052;-60
2022/04/24 08:15:14;;;;;;;9.55;6.35;;;;;;;-148.33;100.00;56587.81;5049028;28;20029;-60
2022/04/24 08:17:39;;;;;;;6.68;6.18;;;;;;;-148.33;100.00;56587.81;5048705;28;20040;-60
2022/04/24 08:20:06;;;;;;;8.43;6.38;;;;;;;-148.33;100.00;56587.81;5042986;28;20100;-60
2022/04/24 08:22:52;;;;;;;6.95;6.25;;;;;;;-148.33;100.00;56587.81;5031437;28;20115;-60
2022/04/24 08:25:20;;;;;;;6.78;6.28;;;;;;;-148.33;100.00;56587.81;5037179;28;20053;-59
2022/04/24 08:27:47;;;;;;;7.43;6.82;;;;;;;-148.33;100.00;56587.81;5027697;28;20035;-59
2022/04/24 08:30:13;;;;;;;9.65;7.20;;;;;;;-148.33;100.00;56587.81;5040674;28;20162;-60
2022/04/24 08:32:39;;;;;;;7.55;6.90;;;;;;;-148.33;100.00;56587.81;5033583;28;20602;-59
2022/04/24 08:35:07;;;;;;;8.85;6.93;;;;;;;-148.33;100.00;56587.81;5042933;28;20355;-60
2022/04/24 08:37:33;;;;;;;6.95;6.28;;;;;;;-148.33;100.00;56587.81;5047007;28;20032;-59
2022/04/24 08:39:58;;;;;;;8.45;7.38;;;;;;;-148.33;100.00;56587.81;5047107;28;20078;-60
2022/04/24 08:42:23;;;;;;;8.05;7.30;;;;;;;-148.33;100.00;56587.81;5043510;28;20087;-60
2022/04/24 08:44:50;;;;;;;7.75;6.97;;;;;;;-148.33;100.00;56587.81;5035238;28;20025;-60
2022/04/24 08:47:16;;;;;;;8.35;7.55;;;;;;;-148.33;100.00;56587.81;5031270;28;20017;-60
2022/04/24 08:49:42;;;;;;;7.65;7.03;;;;;;;-148.33;100.00;56587.81;5030733;28;20398;-60
2022/04/24 08:52:09;;;;;;;8.90;7.78;;;;;;;-148.33;100.00;56587.81;5028949;28;20032;-59
2022/04/24 08:54:36;;;;;;;8.25;7.65;;;;;;;-148.33;100.00;56587.81;5029431;28;20029;-60
2022/04/24 08:57:01;;;;;;;8.45;7.75;;;;;;;-148.33;100.00;56587.81;5030926;28;20159;-58
2022/04/24 08:59:27;;;;;;;8.23;7.63;;;;;;;-148.33;100.00;56587.81;5028530;28;20120;-59
2022/04/24 09:01:52;;;;;;;7.82;7.20;;;;;;;-148.33;100.00;56587.81;5029266;28;20163;-60
2022/04/24 09:04:21;;;;;;;7.82;7.22;;;;;;;-148.33;100.00;56587.81;5027571;28;20082;-59
2022/04/24 09:06:59;;;;;;;8.43;7.38;;;;;;;-148.33;100.00;56587.81;5037234;28;20272;-59
2022/04/24 09:09:24;;;;;;;8.43;7.72;;;;;;;-148.33;100.00;56587.81;5028094;28;20534;-60
2022/04/24 09:11:50;;;;;;;8.90;8.20;;;;;;;-148.33;100.00;56587.81;5028780;28;20017;-60
2022/04/24 09:14:17;;;;;;;8.95;8.15;;;;;;;-148.33;100.00;56587.81;5028666;28;20029;-60
2022/04/24 09:16:47;;;;;;;8.85;8.05;;;;;;;-148.33;100.00;56587.81;5028904;28;20053;-60
2022/04/24 09:19:25;;;;;;;8.15;7.35;;;;;;;-148.33;100.00;56587.81;5028935;28;20501;-59
2022/04/24 09:22:00;;;;;;;8.23;7.50;;;;;;;-148.33;100.00;56587.81;5027894;28;20034;-60
2022/04/24 09:24:37;;;;;;;8.13;7.15;;;;;;;-148.33;100.00;56587.81;5041228;28;20381;-59
2022/04/24 09:27:02;;;;;;;8.75;8.05;;;;;;;-148.33;100.00;56587.81;5047395;28;20089;-59
2022/04/24 09:29:27;;;;;;;8.85;7.57;;;;;;;-148.33;100.00;56587.81;5047337;28;20025;-60
2022/04/24 09:31:54;;;;;;;8.32;7.63;;;;;;;-148.33;100.00;56587.81;5045972;28;20068;-61
2022/04/24 09:34:20;;;;;;;8.85;8.00;;;;;;;-148.33;100.00;56587.81;5027942;28;20139;-61
2022/04/24 09:37:00;;;;;;;8.82;8.00;;;;;;;-148.33;100.00;56587.81;5028096;28;20075;-59
2022/04/24 09:39:29;;;;;;;13.43;9.57;;;;;;;-148.33;100.00;56587.81;5028619;28;20083;-61
2022/04/24 09:42:05;;;;;;;8.90;8.05;;;;;;;-148.33;100.00;56587.81;5030763;28;20540;-62
2022/04/24 09:44:40;;;;;;;8.85;8.05;;;;;;;-148.33;100.00;56587.81;5030764;28;20044;-62
2022/04/24 09:47:06;;;;;;;10.00;8.48;;;;;;;-148.33;100.00;56587.81;5027755;28;20025;-62
2022/04/24 09:49:38;;;;;;;9.85;8.85;;;;;;;-148.33;100.00;56587.81;5027929;28;20420;-62
2022/04/24 09:52:14;;;;;;;9.25;8.32;;;;;;;-148.33;100.00;56587.81;5028254;28;20155;-61
2022/04/24 09:54:49;;;;;;;9.68;8.80;;;;;;;-148.33;100.00;56587.81;5026775;28;20040;-62
2022/04/24 09:57:16;;;;;;;9.45;8.65;;;;;;;-148.33;100.00;56587.81;5027159;28;20065;-59
2022/04/24 09:59:43;;;;;;;9.88;8.38;;;;;;;-148.33;100.00;56587.81;5027638;28;20043;-61
2022/04/24 10:02:09;;;;;;;9.40;8.60;;;;;;;-148.33;100.00;56587.81;5040957;28;20077;-61
2022/04/24 10:04:38;;;;;;;11.45;9.43;;;;;;;-148.33;100.00;56587.81;5047017;28;20033;-61
2022/04/24 10:07:11;;;;;;;10.48;9.48;;;;;;;-148.33;100.00;56587.81;5047797;28;20040;-61
2022/04/24 10:09:39;;;;;;;10.27;9.38;;;;;;;-148.33;100.00;56587.81;5027910;28;20083;-61
2022/04/24 10:12:09;;;;;;;9.82;9.05;;;;;;;-148.33;100.00;56587.81;5026968;28;20056;-59
2022/04/24 10:14:57;;;;;;;10.52;9.60;;;;;;;-148.33;100.00;56587.81;5028479;28;20385;-60
2022/04/24 10:17:53;;;;;;;9.55;8.70;;;;;;;-148.33;100.00;56587.81;5027977;28;20444;-61
2022/04/24 10:21:02;;;;;;;11.88;10.80;;;;;;;-148.33;100.00;56587.81;5041046;28;20029;-59
2022/04/24 10:23:29;;;;;;;11.15;10.10;;;;;;;-148.33;100.00;56587.81;5016450;28;20041;-61
2022/04/24 10:25:54;;;;;;;10.75;9.68;;;;;;;-148.33;100.00;56587.81;5046775;28;20037;-61
2022/04/24 10:28:20;;;;;;;10.85;9.82;;;;;;;-148.33;100.00;56587.81;5046983;28;20029;-60
2022/04/24 10:31:00;;;;;;;10.32;9.40;;;;;;;-148.33;100.00;56587.81;5046846;28;20408;-61
2022/04/24 10:33:28;;;;;;;12.07;9.35;;;;;;;-148.33;100.00;56587.81;5046832;28;20128;-62
2022/04/24 10:35:59;;;;;;;12.27;9.70;;;;;;;-148.33;100.00;56587.81;5046424;28;20056;-60
2022/04/24 10:38:26;;;;;;;9.77;8.98;;;;;;;-148.33;100.00;56587.81;5046624;28;20434;-61
2022/04/24 10:40:56;;;;;;;8.52;7.93;;;;;;;-148.33;100.00;56587.81;5047092;28;20096;-61
2022/04/24 10:43:23;;;;;;;9.13;8.18;;;;;;;-148.33;100.00;56587.81;5046929;28;20071;-61
2022/04/24 10:45:49;;;;;;;9.45;8.35;;;;;;;-148.33;100.00;56587.81;5044689;28;20036;-60
2022/04/24 10:48:15;;;;;;;8.23;7.35;;;;;;;-148.33;100.00;56587.81;5047151;28;20396;-61
2022/04/24 10:50:47;;;;;;;9.25;8.45;;;;;;;-148.33;100.00;56587.81;5047019;28;20342;-60
2022/04/24 10:53:13;;;;;;;8.77;8.07;;;;;;;-148.33;100.00;56587.81;5046898;28;20033;-60
2022/04/24 10:55:38;;;;;;;7.38;6.70;;;;;;;-148.33;100.00;56587.81;5045664;28;20032;-61
2022/04/24 10:58:05;;;;;;;8.02;7.32;;;;;;;-148.33;100.00;56587.81;5046938;28;20599;-59
2022/04/24 11:00:34;;;;;;;9.30;7.63;;;;;;;-148.33;100.00;56587.81;5046783;28;20021;-61
2022/04/24 11:03:05;;;;;;;10.55;7.15;;;;;;;-148.33;100.00;56587.81;5049063;28;20032;-60
2022/04/24 11:05:36;;;;;;;12.55;7.70;;;;;;;-148.33;100.00;56587.81;5050181;28;20037;-61
2022/04/24 11:08:03;;;;;;;7.60;6.90;;;;;;;-148.33;100.00;56587.81;5049730;28;20021;-61